sensor_id;sensor_type;location;lat;lon;timestamp;pressure;altitude;pressure_sealevel;temperature;humidity
15971;BME280;59785;52.582;13.892;2022-07-24T00:00:55;101186.53;;;12.25;85.47
15971;BME280;59785;52.582;13.892;2022-07-24T00:03:22;101183.16;;;12.22;85.46
15971;BME280;59785;52.582;13.892;2022-07-24T00:05:54;101179.91;;;12.19;85.64
15971;BME280;59785;52.582;13.892;2022-07-24T00:08:20;101176.69;;;12.15;85.75
15971;BME280;59785;52.582;13.892;2022-07-24T00:10:46;101177.03;;;12.12;86.44
15971;BME280;59785;52.582;13.892;2022-07-24T00:13:13;101180.00;;;12.09;86.52
15971;BME280;59785;52.582;13.892;2022-07-24T00:15:39;101181.16;;;12.07;86.93
15971;BME280;59785;52.582;13.892;2022-07-24T00:18:05;101181.31;;;12.05;87.13
15971;BME280;59785;52.582;13.892;2022-07-24T00:20:31;101187.97;;;12.01;87.70
15971;BME280;59785;52.582;13.892;2022-07-24T00:22:58;101185.59;;;11.98;87.79
15971;BME280;59785;52.582;13.892;2022-07-24T00:25:24;101187.91;;;11.93;88.32
15971;BME280;59785;52.582;13.892;2022-07-24T00:27:50;101180.22;;;11.98;88.35
15971;BME280;59785;52.582;13.892;2022-07-24T00:30:16;101190.41;;;11.94;88.50
15971;BME280;59785;52.582;13.892;2022-07-24T00:32:42;101190.88;;;11.90;88.54
15971;BME280;59785;52.582;13.892;2022-07-24T00:35:09;101192.16;;;11.86;89.00
15971;BME280;59785;52.582;13.892;2022-07-24T00:37:35;101189.75;;;11.82;89.29
15971;BME280;59785;52.582;13.892;2022-07-24T00:40:01;101195.44;;;11.79;89.50
15971;BME280;59785;52.582;13.892;2022-07-24T00:42:27;101194.44;;;11.80;89.33
15971;BME280;59785;52.582;13.892;2022-07-24T00:44:54;101200.94;;;11.78;89.31
15971;BME280;59785;52.582;13.892;2022-07-24T00:47:20;101202.53;;;11.71;89.82
15971;BME280;59785;52.582;13.892;2022-07-24T00:49:46;101201.69;;;11.70;90.09
15971;BME280;59785;52.582;13.892;2022-07-24T00:52:13;101202.69;;;11.69;90.36
15971;BME280;59785;52.582;13.892;2022-07-24T00:54:39;101211.19;;;11.64;90.40
15971;BME280;59785;52.582;13.892;2022-07-24T00:57:05;101205.00;;;11.64;90.83
15971;BME280;59785;52.582;13.892;2022-07-24T00:59:36;101211.47;;;11.61;91.08
15971;BME280;59785;52.582;13.892;2022-07-24T01:02:03;101207.25;;;11.59;91.18
15971;BME280;59785;52.582;13.892;2022-07-24T01:04:29;101209.25;;;11.57;90.92
15971;BME280;59785;52.582;13.892;2022-07-24T01:06:56;101217.75;;;11.52;91.46
15971;BME280;59785;52.582;13.892;2022-07-24T01:09:22;101212.69;;;11.49;91.42
15971;BME280;59785;52.582;13.892;2022-07-24T01:11:48;101215.34;;;11.49;91.40
15971;BME280;59785;52.582;13.892;2022-07-24T01:14:15;101218.50;;;11.44;91.75
15971;BME280;59785;52.582;13.892;2022-07-24T01:16:42;101220.63;;;11.41;91.50
15971;BME280;59785;52.582;13.892;2022-07-24T01:19:09;101224.47;;;11.38;91.66
15971;BME280;59785;52.582;13.892;2022-07-24T01:21:35;101222.91;;;11.36;91.45
15971;BME280;59785;52.582;13.892;2022-07-24T01:24:01;101217.66;;;11.34;91.44
15971;BME280;59785;52.582;13.892;2022-07-24T01:26:28;101217.84;;;11.33;91.46
15971;BME280;59785;52.582;13.892;2022-07-24T01:28:54;101216.28;;;11.30;91.82
15971;BME280;59785;52.582;13.892;2022-07-24T01:31:20;101220.81;;;11.30;92.00
15971;BME280;59785;52.582;13.892;2022-07-24T01:33:47;101220.94;;;11.28;92.01
15971;BME280;59785;52.582;13.892;2022-07-24T01:36:13;101224.06;;;11.23;92.10
15971;BME280;59785;52.582;13.892;2022-07-24T01:38:39;101221.53;;;11.22;91.83
15971;BME280;59785;52.582;13.892;2022-07-24T01:41:05;101227.34;;;11.17;92.13
15971;BME280;59785;52.582;13.892;2022-07-24T01:43:31;101231.16;;;11.15;92.32
15971;BME280;59785;52.582;13.892;2022-07-24T01:45:58;101229.34;;;11.15;92.29
15971;BME280;59785;52.582;13.892;2022-07-24T01:48:24;101234.84;;;11.14;92.42
15971;BME280;59785;52.582;13.892;2022-07-24T01:50:50;101230.63;;;11.11;92.73
15971;BME280;59785;52.582;13.892;2022-07-24T01:53:17;101226.38;;;11.09;93.11
15971;BME280;59785;52.582;13.892;2022-07-24T01:55:43;101230.06;;;11.08;92.96
15971;BME280;59785;52.582;13.892;2022-07-24T01:58:09;101236.41;;;11.07;93.23
15971;BME280;59785;52.582;13.892;2022-07-24T02:00:36;101235.69;;;11.04;93.41
15971;BME280;59785;52.582;13.892;2022-07-24T02:03:02;101236.69;;;11.03;93.13
15971;BME280;59785;52.582;13.892;2022-07-24T02:05:28;101237.97;;;10.99;93.42
15971;BME280;59785;52.582;13.892;2022-07-24T02:07:57;101238.25;;;10.96;93.42
15971;BME280;59785;52.582;13.892;2022-07-24T02:10:25;101242.91;;;10.94;93.56
15971;BME280;59785;52.582;13.892;2022-07-24T02:12:51;101243.19;;;10.91;93.49
15971;BME280;59785;52.582;13.892;2022-07-24T02:15:18;101238.13;;;10.88;93.84
15971;BME280;59785;52.582;13.892;2022-07-24T02:17:48;101239.13;;;10.87;93.87
15971;BME280;59785;52.582;13.892;2022-07-24T02:20:14;101236.88;;;10.82;93.73
15971;BME280;59785;52.582;13.892;2022-07-24T02:22:40;101231.66;;;10.81;94.04
15971;BME280;59785;52.582;13.892;2022-07-24T02:25:07;101228.41;;;10.77;94.43
15971;BME280;59785;52.582;13.892;2022-07-24T02:27:34;101227.84;;;10.74;94.32
15971;BME280;59785;52.582;13.892;2022-07-24T02:30:00;101227.00;;;10.73;94.34
15971;BME280;59785;52.582;13.892;2022-07-24T02:32:26;101231.38;;;10.74;94.41
15971;BME280;59785;52.582;13.892;2022-07-24T02:34:53;101230.00;;;10.70;94.35
15971;BME280;59785;52.582;13.892;2022-07-24T02:37:19;101226.75;;;10.67;94.50
15971;BME280;59785;52.582;13.892;2022-07-24T02:39:45;101221.38;;;10.67;94.90
15971;BME280;59785;52.582;13.892;2022-07-24T02:42:11;101227.31;;;10.70;94.73
15971;BME280;59785;52.582;13.892;2022-07-24T02:44:37;101233.78;;;10.68;94.84
15971;BME280;59785;52.582;13.892;2022-07-24T02:47:04;101236.06;;;10.62;95.06
15971;BME280;59785;52.582;13.892;2022-07-24T02:49:30;101234.78;;;10.57;95.32
15971;BME280;59785;52.582;13.892;2022-07-24T02:51:56;101244.81;;;10.55;95.53
15971;BME280;59785;52.582;13.892;2022-07-24T02:54:22;101238.44;;;10.56;95.73
15971;BME280;59785;52.582;13.892;2022-07-24T02:56:48;101247.63;;;10.53;96.04
15971;BME280;59785;52.582;13.892;2022-07-24T02:59:15;101246.22;;;10.49;95.91
15971;BME280;59785;52.582;13.892;2022-07-24T03:01:41;101256.22;;;10.47;96.78
15971;BME280;59785;52.582;13.892;2022-07-24T03:04:07;101254.50;;;10.46;96.59
15971;BME280;59785;52.582;13.892;2022-07-24T03:06:33;101250.16;;;10.45;97.06
15971;BME280;59785;52.582;13.892;2022-07-24T03:09:01;101248.44;;;10.44;96.96
15971;BME280;59785;52.582;13.892;2022-07-24T03:11:28;101255.50;;;10.45;96.98
15971;BME280;59785;52.582;13.892;2022-07-24T03:13:54;101248.88;;;10.49;96.77
15971;BME280;59785;52.582;13.892;2022-07-24T03:16:20;101256.34;;;10.45;96.74
15971;BME280;59785;52.582;13.892;2022-07-24T03:18:46;101254.50;;;10.46;96.60
15971;BME280;59785;52.582;13.892;2022-07-24T03:21:15;101264.41;;;10.45;96.32
15971;BME280;59785;52.582;13.892;2022-07-24T03:24:02;101265.38;;;10.44;96.57
15971;BME280;59785;52.582;13.892;2022-07-24T03:26:28;101266.22;;;10.45;96.39
15971;BME280;59785;52.582;13.892;2022-07-24T03:28:55;101270.88;;;10.43;96.95
15971;BME280;59785;52.582;13.892;2022-07-24T03:31:21;101271.59;;;10.45;96.94
15971;BME280;59785;52.582;13.892;2022-07-24T03:33:47;101273.25;;;10.46;96.92
15971;BME280;59785;52.582;13.892;2022-07-24T03:36:13;101268.63;;;10.48;96.82
15971;BME280;59785;52.582;13.892;2022-07-24T03:38:40;101278.34;;;10.49;96.90
15971;BME280;59785;52.582;13.892;2022-07-24T03:41:07;101276.38;;;10.51;96.79
15971;BME280;59785;52.582;13.892;2022-07-24T03:43:33;101266.22;;;10.55;97.00
15971;BME280;59785;52.582;13.892;2022-07-24T03:45:59;101274.09;;;10.56;97.03
15971;BME280;59785;52.582;13.892;2022-07-24T03:48:25;101275.53;;;10.60;96.85
15971;BME280;59785;52.582;13.892;2022-07-24T03:50:52;101285.00;;;10.64;97.02
15971;BME280;59785;52.582;13.892;2022-07-24T03:53:18;101281.19;;;10.67;96.50
15971;BME280;59785;52.582;13.892;2022-07-24T03:55:45;101283.41;;;10.72;97.07
15971;BME280;59785;52.582;13.892;2022-07-24T03:58:11;101275.81;;;10.77;96.80
15971;BME280;59785;52.582;13.892;2022-07-24T04:00:37;101274.81;;;10.78;97.15
15971;BME280;59785;52.582;13.892;2022-07-24T04:03:03;101285.97;;;10.83;97.30
15971;BME280;59785;52.582;13.892;2022-07-24T04:05:30;101287.81;;;10.92;96.94
15971;BME280;59785;52.582;13.892;2022-07-24T04:07:56;101276.94;;;11.03;96.75
15971;BME280;59785;52.582;13.892;2022-07-24T04:10:22;101284.25;;;11.11;96.75
15971;BME280;59785;52.582;13.892;2022-07-24T04:12:48;101281.69;;;11.19;96.17
15971;BME280;59785;52.582;13.892;2022-07-24T04:15:14;101288.31;;;11.25;96.08
15971;BME280;59785;52.582;13.892;2022-07-24T04:17:41;101290.09;;;11.34;95.13
15971;BME280;59785;52.582;13.892;2022-07-24T04:20:10;101285.03;;;11.41;94.51
15971;BME280;59785;52.582;13.892;2022-07-24T04:22:36;101293.31;;;11.48;94.06
15971;BME280;59785;52.582;13.892;2022-07-24T04:25:05;101296.41;;;11.53;93.44
15971;BME280;59785;52.582;13.892;2022-07-24T04:27:31;101288.78;;;11.58;92.81
15971;BME280;59785;52.582;13.892;2022-07-24T04:29:57;101289.88;;;11.65;92.18
15971;BME280;59785;52.582;13.892;2022-07-24T04:32:24;101293.81;;;11.71;91.55
15971;BME280;59785;52.582;13.892;2022-07-24T04:34:51;101293.06;;;11.78;90.92
15971;BME280;59785;52.582;13.892;2022-07-24T04:37:17;101298.00;;;11.83;90.32
15971;BME280;59785;52.582;13.892;2022-07-24T04:39:43;101291.63;;;11.94;89.70
15971;BME280;59785;52.582;13.892;2022-07-24T04:42:09;101296.09;;;12.03;88.82
15971;BME280;59785;52.582;13.892;2022-07-24T04:44:35;101304.25;;;12.11;88.24
15971;BME280;59785;52.582;13.892;2022-07-24T04:47:02;101301.66;;;12.19;88.09
15971;BME280;59785;52.582;13.892;2022-07-24T04:49:28;101296.34;;;12.28;87.44
15971;BME280;59785;52.582;13.892;2022-07-24T04:51:54;101297.84;;;12.40;86.64
15971;BME280;59785;52.582;13.892;2022-07-24T04:54:20;101293.72;;;12.46;86.24
15971;BME280;59785;52.582;13.892;2022-07-24T04:56:46;101294.94;;;12.51;85.43
15971;BME280;59785;52.582;13.892;2022-07-24T04:59:13;101296.41;;;12.63;84.88
15971;BME280;59785;52.582;13.892;2022-07-24T05:01:39;101290.81;;;12.75;83.98
15971;BME280;59785;52.582;13.892;2022-07-24T05:04:05;101287.69;;;12.88;82.89
15971;BME280;59785;52.582;13.892;2022-07-24T05:06:32;101296.00;;;12.94;82.52
15971;BME280;59785;52.582;13.892;2022-07-24T05:08:58;101299.28;;;13.06;81.76
15971;BME280;59785;52.582;13.892;2022-07-24T05:11:24;101295.81;;;13.14;80.85
15971;BME280;59785;52.582;13.892;2022-07-24T05:13:50;101298.88;;;13.19;80.35
15971;BME280;59785;52.582;13.892;2022-07-24T05:16:16;101288.88;;;13.29;79.74
15971;BME280;59785;52.582;13.892;2022-07-24T05:18:43;101304.75;;;13.40;78.49
15971;BME280;59785;52.582;13.892;2022-07-24T05:21:09;101291.84;;;13.44;78.56
15971;BME280;59785;52.582;13.892;2022-07-24T05:23:35;101292.06;;;13.51;78.37
15971;BME280;59785;52.582;13.892;2022-07-24T05:26:01;101294.78;;;13.59;77.58
15971;BME280;59785;52.582;13.892;2022-07-24T05:28:28;101289.97;;;13.71;77.48
15971;BME280;59785;52.582;13.892;2022-07-24T05:30:54;101297.91;;;13.72;77.18
15971;BME280;59785;52.582;13.892;2022-07-24T05:33:20;101300.31;;;13.84;77.09
15971;BME280;59785;52.582;13.892;2022-07-24T05:35:47;101301.00;;;13.86;76.99
15971;BME280;59785;52.582;13.892;2022-07-24T05:38:13;101302.69;;;13.95;76.56
15971;BME280;59785;52.582;13.892;2022-07-24T05:40:40;101303.44;;;14.05;76.61
15971;BME280;59785;52.582;13.892;2022-07-24T05:43:06;101307.13;;;14.12;76.39
15971;BME280;59785;52.582;13.892;2022-07-24T05:45:33;101307.88;;;14.23;76.00
15971;BME280;59785;52.582;13.892;2022-07-24T05:48:00;101299.44;;;14.34;76.13
15971;BME280;59785;52.582;13.892;2022-07-24T05:50:26;101305.88;;;14.41;74.92
15971;BME280;59785;52.582;13.892;2022-07-24T05:52:52;101299.66;;;14.49;75.00
15971;BME280;59785;52.582;13.892;2022-07-24T05:55:19;101306.94;;;14.56;75.29
15971;BME280;59785;52.582;13.892;2022-07-24T05:57:45;101312.72;;;14.70;74.54
15971;BME280;59785;52.582;13.892;2022-07-24T17:21:35;100929.34;;;35.71;16.63
15971;BME280;59785;52.582;13.892;2022-07-24T17:24:02;100928.69;;;36.06;16.83
15971;BME280;59785;52.582;13.892;2022-07-24T17:26:29;100930.13;;;36.03;16.13
15971;BME280;59785;52.582;13.892;2022-07-24T17:28:55;100927.34;;;36.03;16.77
15971;BME280;59785;52.582;13.892;2022-07-24T17:31:22;100932.13;;;36.43;16.12
15971;BME280;59785;52.582;13.892;2022-07-24T17:33:49;100936.09;;;36.10;16.47
15971;BME280;59785;52.582;13.892;2022-07-24T17:36:15;100928.47;;;35.93;15.89
15971;BME280;59785;52.582;13.892;2022-07-24T17:38:42;100931.44;;;35.97;16.43
15971;BME280;59785;52.582;13.892;2022-07-24T17:41:08;100930.63;;;35.97;16.39
15971;BME280;59785;52.582;13.892;2022-07-24T17:43:35;100940.09;;;35.64;16.15
15971;BME280;59785;52.582;13.892;2022-07-24T17:46:02;100930.94;;;35.05;17.53
15971;BME280;59785;52.582;13.892;2022-07-24T17:48:30;100934.03;;;34.39;18.12
15971;BME280;59785;52.582;13.892;2022-07-24T17:50:56;100932.25;;;34.02;18.25
15971;BME280;59785;52.582;13.892;2022-07-24T17:53:22;100930.41;;;33.64;18.52
15971;BME280;59785;52.582;13.892;2022-07-24T17:55:48;100926.53;;;33.46;18.85
15971;BME280;59785;52.582;13.892;2022-07-24T17:58:15;100932.59;;;33.48;19.28
15971;BME280;59785;52.582;13.892;2022-07-24T18:00:41;100935.03;;;33.36;18.93
15971;BME280;59785;52.582;13.892;2022-07-24T18:03:07;100928.91;;;33.20;19.39
15971;BME280;59785;52.582;13.892;2022-07-24T18:05:33;100928.88;;;32.82;20.73
15971;BME280;59785;52.582;13.892;2022-07-24T18:08:00;100917.44;;;31.92;21.50
15971;BME280;59785;52.582;13.892;2022-07-24T18:10:26;100926.25;;;31.36;21.82
15971;BME280;59785;52.582;13.892;2022-07-24T18:12:52;100920.38;;;31.08;22.90
15971;BME280;59785;52.582;13.892;2022-07-24T18:15:19;100912.03;;;30.63;23.89
15971;BME280;59785;52.582;13.892;2022-07-24T18:17:46;100912.72;;;30.19;24.14
15971;BME280;59785;52.582;13.892;2022-07-24T18:20:12;100911.13;;;29.93;25.25
15971;BME280;59785;52.582;13.892;2022-07-24T18:22:39;100913.91;;;29.57;25.23
15971;BME280;59785;52.582;13.892;2022-07-24T18:25:06;100911.09;;;29.00;25.94
15971;BME280;59785;52.582;13.892;2022-07-24T18:27:35;100906.06;;;28.71;26.90
15971;BME280;59785;52.582;13.892;2022-07-24T18:30:02;100912.19;;;28.31;26.54
15971;BME280;59785;52.582;13.892;2022-07-24T18:32:28;100907.06;;;27.97;27.17
15971;BME280;59785;52.582;13.892;2022-07-24T18:34:55;100902.94;;;27.62;28.99
15971;BME280;59785;52.582;13.892;2022-07-24T18:37:22;100900.25;;;27.35;29.13
15971;BME280;59785;52.582;13.892;2022-07-24T18:39:48;100900.16;;;26.98;29.26
15971;BME280;59785;52.582;13.892;2022-07-24T18:42:14;100897.00;;;26.62;30.16
15971;BME280;59785;52.582;13.892;2022-07-24T18:44:40;100904.78;;;26.26;31.52
15971;BME280;59785;52.582;13.892;2022-07-24T18:47:06;100901.94;;;25.99;31.54
15971;BME280;59785;52.582;13.892;2022-07-24T18:49:35;100905.88;;;25.69;32.38
15971;BME280;59785;52.582;13.892;2022-07-24T18:52:01;100907.53;;;25.36;32.65
15971;BME280;59785;52.582;13.892;2022-07-24T18:54:27;100913.69;;;25.14;33.30
15971;BME280;59785;52.582;13.892;2022-07-24T18:56:54;100912.38;;;24.88;34.40
15971;BME280;59785;52.582;13.892;2022-07-24T18:59:20;100909.03;;;24.69;35.52
15971;BME280;59785;52.582;13.892;2022-07-24T19:01:46;100904.53;;;24.39;35.39
15971;BME280;59785;52.582;13.892;2022-07-24T19:04:12;100909.09;;;24.10;35.86
15971;BME280;59785;52.582;13.892;2022-07-24T19:06:38;100908.28;;;23.86;37.12
15971;BME280;59785;52.582;13.892;2022-07-24T19:09:04;100918.84;;;23.59;37.92
15971;BME280;59785;52.582;13.892;2022-07-24T19:11:32;100913.09;;;23.37;38.63
15971;BME280;59785;52.582;13.892;2022-07-24T19:13:58;100912.78;;;23.15;39.12
15971;BME280;59785;52.582;13.892;2022-07-24T19:16:27;100916.59;;;22.95;39.74
15971;BME280;59785;52.582;13.892;2022-07-24T19:18:53;100915.22;;;22.74;41.63
15971;BME280;59785;52.582;13.892;2022-07-24T19:21:19;100922.84;;;22.54;41.86
15971;BME280;59785;52.582;13.892;2022-07-24T19:23:46;100917.97;;;22.37;42.75
15971;BME280;59785;52.582;13.892;2022-07-24T19:26:12;100924.94;;;22.15;43.00
15971;BME280;59785;52.582;13.892;2022-07-24T19:28:38;100922.75;;;21.98;43.95
15971;BME280;59785;52.582;13.892;2022-07-24T19:31:04;100930.94;;;21.80;43.76
15971;BME280;59785;52.582;13.892;2022-07-24T19:33:30;100923.06;;;21.65;43.94
15971;BME280;59785;52.582;13.892;2022-07-24T19:35:57;100930.31;;;21.53;44.87
15971;BME280;59785;52.582;13.892;2022-07-24T19:38:23;100929.56;;;21.39;45.53
15971;BME280;59785;52.582;13.892;2022-07-24T19:40:49;100929.63;;;21.25;45.19
15971;BME280;59785;52.582;13.892;2022-07-24T19:43:15;100933.53;;;21.11;45.97
15971;BME280;59785;52.582;13.892;2022-07-24T19:45:51;100933.59;;;20.98;47.24
15971;BME280;59785;52.582;13.892;2022-07-24T19:48:18;100937.00;;;20.86;46.80
15971;BME280;59785;52.582;13.892;2022-07-24T19:50:44;100941.06;;;20.71;47.96
15971;BME280;59785;52.582;13.892;2022-07-24T19:53:30;100944.00;;;20.56;48.14
15971;BME280;59785;52.582;13.892;2022-07-24T19:55:56;100941.53;;;20.41;48.52
15971;BME280;59785;52.582;13.892;2022-07-24T19:58:22;100946.16;;;20.27;49.67
15971;BME280;59785;52.582;13.892;2022-07-24T20:00:48;100933.63;;;20.19;49.99
15971;BME280;59785;52.582;13.892;2022-07-24T20:03:15;100933.44;;;20.07;50.87
15971;BME280;59785;52.582;13.892;2022-07-24T20:05:41;100944.97;;;19.96;50.72
15971;BME280;59785;52.582;13.892;2022-07-24T20:08:07;100934.75;;;19.85;51.62
15971;BME280;59785;52.582;13.892;2022-07-24T20:10:33;100938.50;;;19.77;52.26
15971;BME280;59785;52.582;13.892;2022-07-24T20:12:59;100942.66;;;19.66;52.37
15971;BME280;59785;52.582;13.892;2022-07-24T20:15:26;100933.03;;;19.57;52.80
15971;BME280;59785;52.582;13.892;2022-07-24T20:17:52;100933.03;;;19.50;53.87
15971;BME280;59785;52.582;13.892;2022-07-24T20:20:18;100937.41;;;19.38;54.33
15971;BME280;59785;52.582;13.892;2022-07-24T20:22:44;100926.53;;;19.31;55.00
15971;BME280;59785;52.582;13.892;2022-07-24T20:25:11;100931.97;;;19.25;55.28
15971;BME280;59785;52.582;13.892;2022-07-24T20:27:40;100927.13;;;19.20;55.78
15971;BME280;59785;52.582;13.892;2022-07-24T20:30:08;100935.06;;;19.15;56.08
15971;BME280;59785;52.582;13.892;2022-07-24T20:32:35;100930.47;;;19.09;55.50
15971;BME280;59785;52.582;13.892;2022-07-24T20:35:01;100920.41;;;19.03;55.79
15971;BME280;59785;52.582;13.892;2022-07-24T20:37:27;100928.75;;;18.95;56.04
15971;BME280;59785;52.582;13.892;2022-07-24T20:39:53;100922.47;;;18.87;56.45
15971;BME280;59785;52.582;13.892;2022-07-24T20:42:19;100921.59;;;18.80;56.09
15971;BME280;59785;52.582;13.892;2022-07-24T20:44:46;100911.94;;;18.71;56.91
15971;BME280;59785;52.582;13.892;2022-07-24T20:47:12;100917.53;;;18.63;56.98
15971;BME280;59785;52.582;13.892;2022-07-24T20:49:38;100915.22;;;18.53;57.21
15971;BME280;59785;52.582;13.892;2022-07-24T20:52:04;100914.13;;;18.47;57.84
15971;BME280;59785;52.582;13.892;2022-07-24T20:54:30;100912.44;;;18.40;57.97
15971;BME280;59785;52.582;13.892;2022-07-24T20:56:57;100917.59;;;18.35;59.19
15971;BME280;59785;52.582;13.892;2022-07-24T20:59:23;100916.94;;;18.26;58.86
15971;BME280;59785;52.582;13.892;2022-07-24T21:01:49;100926.53;;;18.22;59.29
15971;BME280;59785;52.582;13.892;2022-07-24T21:04:20;100927.97;;;18.18;58.88
15971;BME280;59785;52.582;13.892;2022-07-24T21:06:46;100922.03;;;18.07;59.21
15971;BME280;59785;52.582;13.892;2022-07-24T21:09:12;100933.69;;;18.01;59.21
15971;BME280;59785;52.582;13.892;2022-07-24T21:11:38;100928.41;;;17.93;59.39
15971;BME280;59785;52.582;13.892;2022-07-24T21:14:04;100924.63;;;17.87;60.08
15971;BME280;59785;52.582;13.892;2022-07-24T21:16:31;100928.72;;;17.83;59.87
15971;BME280;59785;52.582;13.892;2022-07-24T21:18:58;100929.53;;;17.77;60.75
15971;BME280;59785;52.582;13.892;2022-07-24T21:21:24;100933.47;;;17.74;60.59
15971;BME280;59785;52.582;13.892;2022-07-24T21:23:50;100935.50;;;17.72;61.19
15971;BME280;59785;52.582;13.892;2022-07-24T21:26:16;100934.03;;;17.70;61.17
15971;BME280;59785;52.582;13.892;2022-07-24T21:28:42;100928.16;;;17.66;60.56
15971;BME280;59785;52.582;13.892;2022-07-24T21:31:09;100928.13;;;17.60;60.92
15971;BME280;59785;52.582;13.892;2022-07-24T21:33:35;100929.75;;;17.54;61.40
15971;BME280;59785;52.582;13.892;2022-07-24T21:36:01;100931.16;;;17.50;61.90
15971;BME280;59785;52.582;13.892;2022-07-24T21:38:27;100930.06;;;17.44;62.00
15971;BME280;59785;52.582;13.892;2022-07-24T21:40:54;100928.59;;;17.42;61.93
15971;BME280;59785;52.582;13.892;2022-07-24T21:43:20;100922.28;;;17.34;62.20
15971;BME280;59785;52.582;13.892;2022-07-24T21:45:46;100931.81;;;17.30;62.19
15971;BME280;59785;52.582;13.892;2022-07-24T21:48:12;100935.09;;;17.26;62.62
15971;BME280;59785;52.582;13.892;2022-07-24T21:50:39;100932.78;;;17.23;62.70
15971;BME280;59785;52.582;13.892;2022-07-24T21:53:05;100927.09;;;17.18;62.83
15971;BME280;59785;52.582;13.892;2022-07-24T21:55:31;100926.00;;;17.12;62.96
15971;BME280;59785;52.582;13.892;2022-07-24T21:57:57;100931.16;;;17.07;63.60
15971;BME280;59785;52.582;13.892;2022-07-24T22:00:33;100938.19;;;17.01;63.44
15971;BME280;59785;52.582;13.892;2022-07-24T22:03:00;100937.09;;;16.95;64.18
15971;BME280;59785;52.582;13.892;2022-07-24T22:05:26;100930.56;;;16.90;64.50
15971;BME280;59785;52.582;13.892;2022-07-24T22:07:52;100935.50;;;16.86;63.93
15971;BME280;59785;52.582;13.892;2022-07-24T22:10:19;100938.63;;;16.83;64.26
15971;BME280;59785;52.582;13.892;2022-07-24T22:12:45;100933.53;;;16.80;64.42
15971;BME280;59785;52.582;13.892;2022-07-24T22:15:11;100942.25;;;16.75;64.77
15971;BME280;59785;52.582;13.892;2022-07-24T22:17:37;100937.19;;;16.72;64.98
15971;BME280;59785;52.582;13.892;2022-07-24T22:20:04;100935.06;;;16.68;65.29
15971;BME280;59785;52.582;13.892;2022-07-24T22:22:31;100933.56;;;16.65;65.55
15971;BME280;59785;52.582;13.892;2022-07-24T22:24:58;100934.13;;;16.61;65.53
15971;BME280;59785;52.582;13.892;2022-07-24T22:27:24;100928.06;;;16.59;66.35
15971;BME280;59785;52.582;13.892;2022-07-24T22:29:50;100926.78;;;16.54;66.01
15971;BME280;59785;52.582;13.892;2022-07-24T22:32:17;100927.13;;;16.51;66.09
15971;BME280;59785;52.582;13.892;2022-07-24T22:34:43;100916.72;;;16.48;66.62
15971;BME280;59785;52.582;13.892;2022-07-24T22:37:10;100918.78;;;16.46;67.19
15971;BME280;59785;52.582;13.892;2022-07-24T22:39:37;100917.91;;;16.46;67.61
15971;BME280;59785;52.582;13.892;2022-07-24T22:42:04;100904.13;;;16.41;68.01
15971;BME280;59785;52.582;13.892;2022-07-24T22:44:31;100909.91;;;16.38;67.78
15971;BME280;59785;52.582;13.892;2022-07-24T22:46:57;100908.59;;;16.33;67.61
15971;BME280;59785;52.582;13.892;2022-07-24T22:49:26;100904.41;;;16.31;67.72
15971;BME280;59785;52.582;13.892;2022-07-24T22:51:53;100908.53;;;16.27;67.75
15971;BME280;59785;52.582;13.892;2022-07-24T22:54:20;100901.78;;;16.23;67.89
15971;BME280;59785;52.582;13.892;2022-07-24T22:56:50;100904.69;;;16.21;67.59
15971;BME280;59785;52.582;13.892;2022-07-24T22:59:16;100906.53;;;16.21;67.69
15971;BME280;59785;52.582;13.892;2022-07-24T23:01:43;100895.28;;;16.17;68.07
15971;BME280;59785;52.582;13.892;2022-07-24T23:04:09;100897.53;;;16.13;67.93
15971;BME280;59785;52.582;13.892;2022-07-24T23:06:35;100896.00;;;16.11;68.40
15971;BME280;59785;52.582;13.892;2022-07-24T23:09:01;100888.78;;;16.11;68.76
15971;BME280;59785;52.582;13.892;2022-07-24T23:11:28;100895.00;;;16.12;68.39
15971;BME280;59785;52.582;13.892;2022-07-24T23:13:54;100879.16;;;16.09;68.54
15971;BME280;59785;52.582;13.892;2022-07-24T23:16:20;100880.38;;;16.06;68.58
15971;BME280;59785;52.582;13.892;2022-07-24T23:18:45;100876.19;;;16.04;68.88
15971;BME280;59785;52.582;13.892;2022-07-24T23:21:11;100885.13;;;16.04;68.37
15971;BME280;59785;52.582;13.892;2022-07-24T23:23:37;100882.41;;;16.04;68.16
15971;BME280;59785;52.582;13.892;2022-07-24T23:26:04;100877.38;;;16.01;68.43
15971;BME280;59785;52.582;13.892;2022-07-24T23:28:30;100877.75;;;15.98;68.63
15971;BME280;59785;52.582;13.892;2022-07-24T23:30:56;100879.16;;;15.94;67.98
15971;BME280;59785;52.582;13.892;2022-07-24T23:33:22;100878.69;;;15.90;68.77
15971;BME280;59785;52.582;13.892;2022-07-24T23:35:49;100868.44;;;15.86;68.06
15971;BME280;59785;52.582;13.892;2022-07-24T23:38:15;100869.63;;;15.83;68.55
15971;BME280;59785;52.582;13.892;2022-07-24T23:40:41;100864.63;;;15.80;68.14
15971;BME280;59785;52.582;13.892;2022-07-24T23:43:07;100862.28;;;15.77;68.29
15971;BME280;59785;52.582;13.892;2022-07-24T23:45:34;100856.41;;;15.73;67.79
15971;BME280;59785;52.582;13.892;2022-07-24T23:48:03;100857.75;;;15.69;68.53
15971;BME280;59785;52.582;13.892;2022-07-24T23:50:34;100851.53;;;15.69;67.96
15971;BME280;59785;52.582;13.892;2022-07-24T23:53:01;100848.34;;;15.65;68.73
15971;BME280;59785;52.582;13.892;2022-07-24T23:55:27;100850.88;;;15.67;68.65
15971;BME280;59785;52.582;13.892;2022-07-24T23:57:53;100850.69;;;15.68;68.35
